createdAt,value
2018-11-26T00:01:57.068Z,18.70
2018-11-26T00:04:28.006Z,18.70
2018-11-26T00:06:59.206Z,18.70
2018-11-26T00:09:31.027Z,18.70
2018-11-26T00:12:02.780Z,18.60
2018-11-26T00:14:33.752Z,18.50
2018-11-26T00:17:05.028Z,18.50
2018-11-26T00:19:36.592Z,18.40
2018-11-26T00:22:08.165Z,18.30
2018-11-26T00:24:40.159Z,18.20
2018-11-26T00:27:11.580Z,18.00
2018-11-26T00:29:43.360Z,17.90
2018-11-26T00:32:15.425Z,17.70
2018-11-26T00:34:46.530Z,17.60
2018-11-26T00:37:18.035Z,17.60
2018-11-26T00:39:49.248Z,17.40
2018-11-26T00:42:20.604Z,17.50
2018-11-26T00:44:52.397Z,17.40
2018-11-26T00:47:24.299Z,17.30
2018-11-26T00:49:55.638Z,17.30
2018-11-26T00:52:27.292Z,17.40
2018-11-26T00:54:58.793Z,17.50
2018-11-26T00:57:29.039Z,17.60
2018-11-26T01:00:00.525Z,17.70
2018-11-26T01:02:31.894Z,17.90
2018-11-26T01:05:04.134Z,18.00
2018-11-26T01:07:35.864Z,18.00
2018-11-26T01:10:07.300Z,18.00
2018-11-26T01:12:38.651Z,18.00
2018-11-26T01:15:09.985Z,18.10
2018-11-26T01:17:41.298Z,18.00
2018-11-26T01:20:12.726Z,18.00
2018-11-26T01:22:44.390Z,17.90
2018-11-26T01:25:16.101Z,17.80
2018-11-26T01:27:47.412Z,17.80
2018-11-26T01:30:19.033Z,17.70
2018-11-26T01:32:50.257Z,17.70
2018-11-26T01:35:21.873Z,17.70
2018-11-26T01:37:53.526Z,17.70
2018-11-26T01:40:43.276Z,17.60
2018-11-26T01:43:15.268Z,17.60
2018-11-26T01:45:46.633Z,17.60
2018-11-26T01:48:17.900Z,17.60
2018-11-26T01:50:50.245Z,17.60
2018-11-26T01:53:21.564Z,17.60
2018-11-26T01:55:53.150Z,17.70
2018-11-26T01:58:24.821Z,17.80
2018-11-26T02:00:56.364Z,17.90
2018-11-26T02:03:27.960Z,18.00
2018-11-26T02:05:59.744Z,18.00
2018-11-26T02:08:31.174Z,18.00
2018-11-26T02:11:02.580Z,18.00
2018-11-26T02:13:34.462Z,18.00
2018-11-26T02:16:05.790Z,18.10
2018-11-26T02:18:37.425Z,18.10
2018-11-26T02:21:08.922Z,18.20
2018-11-26T02:23:40.592Z,18.20
2018-11-26T02:26:12.236Z,18.30
2018-11-26T02:28:43.563Z,18.30
2018-11-26T02:31:14.931Z,18.20
2018-11-26T02:33:46.694Z,18.10
2018-11-26T02:36:18.403Z,18.00
2018-11-26T02:38:49.699Z,18.00
2018-11-26T02:41:21.314Z,18.10
2018-11-26T02:43:52.882Z,18.10
2018-11-26T02:46:24.534Z,18.10
2018-11-26T02:49:11.315Z,18.20
2018-11-26T02:51:43.047Z,18.30
2018-11-26T02:54:14.769Z,18.30
2018-11-26T02:56:46.390Z,18.30
2018-11-26T02:59:17.245Z,18.20
2018-11-26T03:01:48.646Z,18.10
2018-11-26T03:04:20.044Z,17.90
2018-11-26T03:06:51.780Z,17.80
2018-11-26T03:09:38.708Z,17.80
2018-11-26T03:12:10.300Z,17.80
2018-11-26T03:14:41.776Z,17.90
2018-11-26T03:17:13.529Z,18.00
2018-11-26T03:19:44.797Z,18.10
2018-11-26T03:22:16.820Z,18.30
2018-11-26T03:24:48.193Z,18.50
2018-11-26T03:27:19.612Z,18.60
2018-11-26T03:29:51.597Z,18.60
2018-11-26T03:32:23.190Z,18.50
2018-11-26T03:34:54.795Z,18.50
2018-11-26T03:37:26.106Z,18.50
2018-11-26T03:39:57.243Z,18.30
2018-11-26T03:42:28.774Z,18.20
2018-11-26T03:45:00.154Z,18.10
2018-11-26T03:47:31.480Z,17.90
2018-11-26T03:50:03.059Z,17.80
2018-11-26T03:52:34.899Z,17.80
2018-11-26T03:55:06.483Z,17.70
2018-11-26T03:57:37.964Z,17.80
2018-11-26T04:00:12.329Z,17.70
2018-11-26T04:02:43.865Z,17.80
2018-11-26T04:05:15.116Z,18.00
2018-11-26T04:07:46.721Z,18.00
2018-11-26T04:10:17.992Z,18.00
2018-11-26T04:12:49.673Z,18.20
2018-11-26T04:15:20.924Z,18.30
2018-11-26T04:17:53.145Z,18.40
2018-11-26T04:20:24.396Z,18.50
2018-11-26T04:22:56.382Z,18.60
2018-11-26T04:25:27.671Z,18.70
2018-11-26T04:27:59.666Z,18.80
2018-11-26T04:30:31.248Z,18.80
2018-11-26T04:33:02.724Z,18.80
2018-11-26T04:35:34.159Z,18.50
2018-11-26T04:38:05.794Z,18.00
2018-11-26T04:40:37.555Z,17.80
2018-11-26T04:43:09.334Z,17.80
2018-11-26T04:45:40.816Z,17.90
2018-11-26T04:48:11.163Z,18.20
2018-11-26T04:50:42.724Z,18.30
2018-11-26T04:53:14.556Z,18.40
2018-11-26T04:55:46.503Z,18.50
2018-11-26T04:58:18.188Z,18.60
2018-11-26T05:00:48.674Z,18.70
2018-11-26T05:03:19.957Z,18.70
2018-11-26T05:05:51.523Z,18.80
2018-11-26T05:08:21.972Z,18.80
2018-11-26T05:10:56.570Z,18.70
2018-11-26T05:13:28.092Z,18.70
2018-11-26T05:15:59.818Z,18.60
2018-11-26T05:18:29.615Z,18.60
2018-11-26T05:21:01.375Z,18.50
2018-11-26T05:23:32.829Z,18.50
2018-11-26T05:26:04.327Z,18.40
2018-11-26T05:28:34.809Z,18.40
2018-11-26T05:31:06.983Z,18.40
2018-11-26T05:33:38.035Z,18.30
2018-11-26T05:36:09.382Z,18.20
2018-11-26T05:38:39.854Z,18.20
2018-11-26T05:41:11.266Z,18.20
2018-11-26T05:43:42.545Z,18.20
2018-11-26T05:46:14.302Z,18.20
2018-11-26T05:48:44.746Z,18.30
2018-11-26T05:51:16.717Z,18.30
2018-11-26T05:53:48.324Z,18.20
2018-11-26T05:56:19.678Z,18.20
2018-11-26T05:58:51.562Z,18.30
2018-11-26T06:01:23.114Z,18.30
2018-11-26T06:03:54.478Z,18.30
2018-11-26T06:06:25.889Z,18.30
2018-11-26T06:08:57.835Z,18.20
2018-11-26T06:11:29.622Z,18.20
2018-11-26T06:14:00.900Z,18.30
2018-11-26T06:16:32.577Z,18.30
2018-11-26T06:19:04.005Z,18.30
2018-11-26T06:21:36.210Z,18.40
2018-11-26T06:24:07.472Z,18.40
2018-11-26T06:26:38.757Z,18.40
2018-11-26T06:29:09.036Z,18.40
2018-11-26T06:31:40.955Z,18.50
2018-11-26T06:34:12.792Z,18.60
2018-11-26T06:36:44.467Z,18.60
2018-11-26T06:39:16.130Z,18.70
2018-11-26T06:41:47.596Z,18.70
2018-11-26T06:44:18.962Z,18.60
2018-11-26T06:46:49.514Z,18.50
2018-11-26T06:49:20.990Z,18.50
2018-11-26T06:51:51.417Z,18.40
2018-11-26T06:54:22.973Z,18.40
2018-11-26T06:56:54.757Z,18.50
2018-11-26T06:59:26.406Z,18.60
2018-11-26T07:01:56.746Z,18.50
2018-11-26T07:04:28.211Z,18.40
2018-11-26T07:06:59.458Z,18.40
2018-11-26T07:09:30.127Z,18.30
2018-11-26T07:12:01.845Z,18.40
2018-11-26T07:14:33.434Z,18.30
2018-11-26T07:17:04.636Z,18.30
2018-11-26T07:19:36.060Z,18.20
2018-11-26T07:22:08.461Z,18.10
2018-11-26T07:24:40.985Z,18.10
2018-11-26T07:27:11.358Z,18.10
2018-11-26T07:29:43.162Z,18.10
2018-11-26T07:32:13.021Z,18.10
2018-11-26T07:34:44.886Z,18.20
2018-11-26T07:37:14.749Z,18.30
2018-11-26T07:39:45.990Z,18.40
2018-11-26T07:42:17.758Z,18.40
2018-11-26T07:44:48.408Z,18.50
2018-11-26T07:47:18.258Z,18.50
2018-11-26T07:49:50.290Z,18.40
2018-11-26T07:52:21.414Z,18.30
2018-11-26T07:54:53.584Z,18.20
2018-11-26T07:57:23.960Z,18.00
2018-11-26T07:59:55.347Z,17.80
2018-11-26T08:02:26.920Z,17.70
2018-11-26T08:04:56.849Z,17.60
2018-11-26T08:07:31.363Z,17.80
2018-11-26T08:10:02.138Z,18.10
2018-11-26T08:12:32.181Z,18.30
2018-11-26T08:15:03.733Z,18.50
2018-11-26T08:17:35.694Z,18.80
2018-11-26T08:20:07.381Z,19.00
2018-11-26T08:22:37.798Z,19.10
2018-11-26T08:25:18.032Z,19.00
2018-11-26T08:27:50.324Z,18.80
2018-11-26T08:30:22.032Z,18.40
2018-11-26T08:33:01.855Z,18.20
2018-11-26T08:35:33.261Z,18.10
2018-11-26T08:38:27.246Z,18.20
2018-11-26T08:41:15.876Z,18.40
2018-11-26T08:44:14.782Z,18.40
2018-11-26T08:46:59.874Z,18.50
2018-11-26T08:49:31.985Z,18.50
2018-11-26T08:52:03.892Z,18.60
2018-11-26T08:54:35.317Z,18.60
2018-11-26T08:57:07.022Z,18.50
2018-11-26T08:59:38.453Z,18.50
2018-11-26T09:02:14.070Z,18.50
2018-11-26T09:04:50.224Z,18.40
2018-11-26T09:07:21.941Z,18.40
2018-11-26T09:09:53.678Z,18.40
2018-11-26T09:12:24.402Z,18.40
2018-11-26T09:14:56.262Z,18.40
2018-11-26T09:17:27.990Z,18.50
2018-11-26T09:19:59.564Z,18.50
2018-11-26T09:22:31.157Z,18.30
2018-11-26T09:25:03.311Z,18.20
2018-11-26T09:27:35.024Z,18.10
2018-11-26T09:30:22.252Z,18.00
2018-11-26T09:32:53.821Z,18.00
2018-11-26T09:35:25.088Z,18.10
2018-11-26T09:37:56.894Z,18.00
2018-11-26T09:40:28.566Z,17.80
2018-11-26T09:43:00.496Z,17.70
2018-11-26T09:45:32.112Z,17.60
2018-11-26T09:48:03.438Z,17.60
2018-11-26T09:50:35.657Z,17.60
2018-11-26T09:53:07.436Z,17.70
2018-11-26T09:55:39.140Z,17.80
2018-11-26T09:58:10.610Z,17.80
2018-11-26T10:00:41.957Z,17.80
2018-11-26T10:03:13.708Z,17.90
2018-11-26T10:05:45.654Z,18.00
2018-11-26T10:08:16.874Z,18.10
2018-11-26T10:10:48.548Z,18.40
2018-11-26T10:13:20.633Z,18.50
2018-11-26T10:15:52.490Z,18.40
2018-11-26T10:18:23.942Z,18.10
2018-11-26T10:20:55.349Z,17.90
2018-11-26T10:23:27.526Z,17.90
2018-11-26T10:25:58.721Z,18.10
2018-11-26T10:28:31.173Z,18.20
2018-11-26T10:31:02.702Z,18.20
2018-11-26T10:33:34.324Z,18.20
2018-11-26T10:36:06.674Z,18.30
2018-11-26T10:38:38.515Z,18.30
2018-11-26T10:41:10.420Z,18.30
2018-11-26T10:43:41.955Z,18.30
2018-11-26T10:46:13.415Z,18.20
2018-11-26T10:48:44.892Z,18.30
2018-11-26T10:51:17.388Z,18.40
2018-11-26T10:53:49.150Z,18.50
2018-11-26T10:56:20.855Z,18.50
2018-11-26T10:58:52.450Z,18.60
2018-11-26T11:01:57.648Z,18.60
2018-11-26T11:04:28.872Z,18.50
2018-11-26T11:07:00.182Z,18.50
2018-11-26T11:09:30.519Z,18.60
2018-11-26T11:12:02.177Z,18.60
2018-11-26T11:14:33.936Z,18.60
2018-11-26T11:17:05.454Z,18.70
2018-11-26T11:19:35.559Z,18.80
2018-11-26T11:22:07.745Z,18.90
2018-11-26T11:24:39.348Z,18.90
2018-11-26T11:27:11.290Z,19.00
2018-11-26T11:29:43.424Z,19.10
2018-11-26T11:32:14.740Z,19.10
2018-11-26T11:34:46.386Z,19.10
2018-11-26T11:37:16.552Z,19.30
2018-11-26T11:39:48.436Z,19.20
2018-11-26T11:42:20.048Z,18.90
2018-11-26T11:44:51.596Z,18.60
2018-11-26T11:47:23.163Z,18.40
2018-11-26T11:49:53.643Z,18.30
2018-11-26T11:52:25.155Z,18.10
2018-11-26T11:54:55.781Z,18.00
2018-11-26T11:57:27.545Z,18.00
2018-11-26T11:59:58.715Z,18.00
2018-11-26T12:02:29.415Z,17.90
2018-11-26T12:05:01.370Z,17.70
2018-11-26T12:07:33.025Z,17.70
2018-11-26T12:10:04.459Z,17.60
2018-11-26T12:12:36.139Z,17.60
2018-11-26T12:15:11.707Z,17.60
2018-11-26T12:17:43.245Z,17.80
2018-11-26T12:20:15.255Z,17.70
2018-11-26T12:22:47.155Z,17.70
2018-11-26T12:25:20.744Z,17.70
2018-11-26T12:27:51.257Z,17.70
2018-11-26T12:30:28.551Z,17.70
2018-11-26T12:33:00.132Z,17.80
2018-11-26T12:35:31.555Z,17.90
2018-11-26T12:38:02.821Z,17.90
2018-11-26T12:40:32.782Z,17.90
2018-11-26T12:43:04.682Z,18.00
2018-11-26T12:45:37.014Z,18.00
2018-11-26T12:48:08.493Z,18.00
2018-11-26T12:50:38.725Z,18.00
2018-11-26T12:53:10.967Z,18.10
2018-11-26T12:55:42.721Z,18.10
2018-11-26T12:58:14.487Z,18.20
2018-11-26T13:00:44.783Z,18.20
2018-11-26T13:03:16.917Z,18.30
2018-11-26T13:05:47.539Z,18.40
2018-11-26T13:08:19.422Z,18.40
2018-11-26T13:10:49.877Z,18.70
2018-11-26T13:13:23.316Z,18.70
2018-11-26T13:15:55.160Z,18.60
2018-11-26T13:18:26.678Z,18.60
2018-11-26T13:20:57.129Z,18.50
2018-11-26T13:23:27.081Z,18.30
2018-11-26T13:25:57.180Z,18.30
2018-11-26T13:28:28.813Z,18.20
2018-11-26T13:31:00.820Z,18.10
2018-11-26T13:33:32.023Z,18.00
2018-11-26T13:36:03.684Z,18.00
2018-11-26T13:38:35.876Z,18.00
2018-11-26T13:41:07.591Z,18.00
2018-11-26T13:43:38.855Z,17.90
2018-11-26T13:46:10.544Z,17.90
2018-11-26T13:48:41.940Z,17.80
2018-11-26T13:51:14.663Z,17.80
2018-11-26T13:53:46.524Z,17.80
2018-11-26T13:56:18.517Z,17.80
2018-11-26T13:58:49.871Z,17.80
2018-11-26T14:01:21.658Z,17.90
2018-11-26T14:03:52.460Z,18.00
2018-11-26T14:06:24.426Z,18.00
2018-11-26T14:08:56.574Z,18.20
2018-11-26T14:11:28.682Z,18.30
2018-11-26T14:14:00.224Z,18.40
2018-11-26T14:16:30.641Z,18.30
2018-11-26T14:19:02.598Z,18.20
2018-11-26T14:21:34.628Z,18.30
2018-11-26T14:24:05.891Z,18.40
2018-11-26T14:26:38.071Z,18.30
2018-11-26T14:29:10.110Z,18.20
2018-11-26T14:31:41.668Z,18.20
2018-11-26T14:34:13.202Z,18.10
2018-11-26T14:36:44.930Z,18.20
2018-11-26T14:39:16.654Z,18.20
2018-11-26T14:41:47.867Z,18.30
2018-11-26T14:44:19.977Z,18.30
2018-11-26T14:46:51.946Z,18.20
2018-11-26T14:49:21.973Z,18.10
2018-11-26T14:51:53.416Z,18.10
2018-11-26T14:54:24.926Z,17.90
2018-11-26T14:56:54.972Z,17.90
2018-11-26T14:59:26.342Z,17.80
2018-11-26T15:01:57.166Z,17.90
2018-11-26T15:04:28.872Z,17.90
2018-11-26T15:07:00.580Z,18.00
2018-11-26T15:09:32.321Z,17.90
2018-11-26T15:12:03.640Z,17.90
2018-11-26T15:14:35.126Z,17.80
2018-11-26T15:17:06.898Z,17.80
2018-11-26T15:19:37.954Z,17.80
2018-11-26T15:22:09.912Z,17.90
2018-11-26T15:24:41.552Z,17.90
2018-11-26T15:27:13.485Z,17.90
2018-11-26T15:29:45.256Z,17.80
2018-11-26T15:32:17.218Z,17.70
2018-11-26T15:34:49.188Z,17.70
2018-11-26T15:37:21.127Z,17.70
2018-11-26T15:39:53.248Z,17.80
2018-11-26T15:42:24.958Z,18.00
2018-11-26T15:44:56.616Z,18.20
2018-11-26T15:47:29.385Z,18.50
2018-11-26T15:50:01.403Z,18.70
2018-11-26T15:52:31.408Z,18.80
2018-11-26T15:55:02.344Z,18.90
2018-11-26T15:57:34.095Z,18.90
2018-11-26T16:00:04.314Z,19.00
2018-11-26T16:02:35.898Z,19.10
2018-11-26T16:05:08.345Z,19.10
2018-11-26T16:07:38.839Z,19.10
2018-11-26T16:10:10.966Z,19.20
2018-11-26T16:12:43.040Z,19.30
2018-11-26T16:15:24.301Z,19.30
2018-11-26T16:17:55.002Z,19.30
2018-11-26T16:20:26.965Z,19.40
2018-11-26T16:22:57.244Z,19.40
2018-11-26T16:25:27.490Z,19.40
2018-11-26T16:27:57.480Z,19.20
2018-11-26T16:30:29.359Z,19.10
2018-11-26T16:33:00.854Z,18.90
2018-11-26T16:35:35.036Z,18.80
2018-11-26T16:38:06.333Z,18.80
2018-11-26T16:40:38.096Z,18.70
2018-11-26T16:43:09.502Z,18.70
2018-11-26T16:45:40.914Z,18.60
2018-11-26T16:48:27.999Z,18.60
2018-11-26T16:50:58.861Z,18.30
2018-11-26T16:53:29.392Z,18.00
2018-11-26T16:56:02.480Z,17.90
2018-11-26T16:58:32.948Z,18.10
2018-11-26T17:01:04.598Z,18.10
2018-11-26T17:03:36.210Z,18.20
2018-11-26T17:06:07.980Z,18.30
2018-11-26T17:08:39.434Z,18.40
2018-11-26T17:11:11.345Z,18.40
2018-11-26T17:13:43.864Z,18.40
2018-11-26T17:16:15.992Z,18.50
2018-11-26T17:18:47.187Z,18.60
2018-11-26T17:21:18.841Z,18.50
2018-11-26T17:23:49.773Z,18.50
2018-11-26T17:26:19.838Z,18.50
2018-11-26T17:28:50.983Z,18.50
2018-11-26T17:31:22.933Z,18.70
2018-11-26T17:33:53.322Z,18.90
2018-11-26T17:36:24.924Z,19.10
2018-11-26T17:38:55.614Z,19.40
2018-11-26T17:41:27.308Z,19.70
2018-11-26T17:43:57.834Z,19.80
2018-11-26T17:46:29.488Z,19.90
2018-11-26T17:49:00.034Z,20.00
2018-11-26T17:51:31.969Z,20.00
2018-11-26T17:54:03.858Z,20.10
2018-11-26T17:56:33.998Z,20.10
2018-11-26T17:59:04.010Z,20.00
2018-11-26T18:01:39.106Z,19.90
2018-11-26T18:04:11.236Z,19.60
2018-11-26T18:06:47.257Z,19.40
2018-11-26T18:09:14.172Z,19.40
2018-11-26T18:11:45.924Z,19.20
2018-11-26T18:14:15.783Z,19.10
2018-11-26T18:16:46.952Z,19.10
2018-11-26T18:19:17.019Z,18.90
2018-11-26T18:21:47.726Z,18.80
2018-11-26T18:24:17.641Z,18.70
2018-11-26T18:26:49.597Z,18.60
2018-11-26T18:29:20.099Z,18.20
2018-11-26T18:31:51.961Z,17.80
2018-11-26T18:34:22.127Z,17.60
2018-11-26T18:36:54.206Z,17.60
2018-11-26T18:39:25.730Z,17.70
2018-11-26T18:41:57.383Z,18.00
2018-11-26T18:44:30.081Z,18.10
2018-11-26T18:47:00.069Z,18.20
2018-11-26T18:49:31.919Z,18.40
2018-11-26T18:52:03.902Z,18.70
2018-11-26T18:54:35.616Z,18.90
2018-11-26T18:57:07.415Z,19.00
2018-11-26T18:59:38.916Z,19.10
2018-11-26T19:02:10.777Z,19.00
2018-11-26T19:04:42.422Z,18.90
2018-11-26T19:07:13.650Z,19.00
2018-11-26T19:09:45.230Z,19.00
2018-11-26T19:12:17.306Z,19.00
2018-11-26T19:14:48.723Z,19.10
2018-11-26T19:17:20.964Z,19.10
2018-11-26T19:19:51.840Z,19.20
2018-11-26T19:22:23.678Z,19.20
2018-11-26T19:24:58.285Z,19.20
2018-11-26T19:27:28.614Z,19.10
2018-11-26T19:29:59.306Z,19.00
2018-11-26T19:32:30.988Z,18.90
2018-11-26T19:35:01.564Z,19.00
2018-11-26T19:37:32.420Z,18.90
2018-11-26T19:40:03.193Z,18.90
2018-11-26T19:42:34.816Z,18.70
2018-11-26T19:45:07.713Z,18.50
2018-11-26T19:47:37.970Z,18.40
2018-11-26T19:50:10.717Z,18.40
2018-11-26T19:52:42.484Z,18.30
2018-11-26T19:55:16.479Z,18.20
2018-11-26T19:57:48.029Z,18.30
2018-11-26T20:00:21.977Z,18.20
2018-11-26T20:03:14.539Z,18.10
2018-11-26T20:05:55.438Z,18.00
2018-11-26T20:08:27.527Z,17.80
2018-11-26T20:10:59.593Z,17.60
2018-11-26T20:13:31.513Z,17.60
2018-11-26T20:16:03.405Z,17.50
2018-11-26T20:18:35.015Z,17.60
2018-11-26T20:21:05.945Z,18.00
2018-11-26T20:23:36.684Z,18.40
2018-11-26T20:26:07.613Z,18.60
2018-11-26T20:28:39.355Z,18.70
2018-11-26T20:31:11.401Z,18.70
2018-11-26T20:33:43.135Z,18.70
2018-11-26T20:36:14.305Z,18.80
2018-11-26T20:38:45.885Z,18.70
2018-11-26T20:41:17.478Z,18.80
2018-11-26T20:43:49.486Z,18.80
2018-11-26T20:46:20.163Z,19.10
2018-11-26T20:48:52.034Z,19.30
2018-11-26T20:51:23.062Z,19.40
2018-11-26T20:53:54.709Z,19.40
2018-11-26T20:56:26.798Z,19.50
2018-11-26T20:58:58.549Z,19.50
2018-11-26T21:01:29.971Z,19.50
2018-11-26T21:04:01.530Z,19.40
2018-11-26T21:06:33.460Z,19.30
2018-11-26T21:09:04.808Z,19.30
2018-11-26T21:11:36.398Z,19.10
2018-11-26T21:14:07.676Z,18.90
2018-11-26T21:16:39.102Z,18.70
2018-11-26T21:19:11.304Z,18.60
2018-11-26T21:21:42.260Z,18.50
2018-11-26T21:24:13.902Z,18.40
2018-11-26T21:26:44.550Z,18.40
2018-11-26T21:29:16.254Z,18.30
2018-11-26T21:31:46.937Z,18.40
2018-11-26T21:34:18.748Z,18.30
2018-11-26T21:36:50.242Z,18.20
2018-11-26T21:39:21.922Z,18.10
2018-11-26T21:41:52.915Z,18.00
2018-11-26T21:44:24.273Z,17.90
2018-11-26T21:46:54.857Z,17.90
2018-11-26T21:49:26.335Z,18.10
2018-11-26T21:51:57.927Z,18.30
2018-11-26T21:54:28.695Z,18.50
2018-11-26T21:57:17.921Z,18.70
2018-11-26T21:59:49.552Z,18.90
2018-11-26T22:02:21.145Z,18.70
2018-11-26T22:04:52.556Z,18.30
2018-11-26T22:07:24.030Z,18.10
2018-11-26T22:09:55.326Z,18.00
2018-11-26T22:12:26.732Z,18.30
2018-11-26T22:14:58.045Z,18.40
2018-11-26T22:17:29.421Z,18.50
2018-11-26T22:20:01.158Z,18.60
2018-11-26T22:22:32.700Z,18.60
2018-11-26T22:25:04.587Z,18.50
2018-11-26T22:27:35.747Z,18.40
2018-11-26T22:30:10.656Z,18.30
2018-11-26T22:32:42.125Z,18.30
2018-11-26T22:35:13.963Z,18.30
2018-11-26T22:37:45.297Z,18.40
2018-11-26T22:40:22.691Z,18.30
2018-11-26T22:42:54.594Z,18.20
2018-11-26T22:45:27.445Z,18.10
2018-11-26T22:47:59.344Z,18.10
2018-11-26T22:50:30.837Z,18.10
2018-11-26T22:53:02.313Z,18.20
2018-11-26T22:55:34.195Z,18.20
2018-11-26T22:58:05.749Z,18.30
2018-11-26T23:00:45.005Z,18.30
2018-11-26T23:03:33.347Z,18.30
2018-11-26T23:06:04.777Z,18.40
2018-11-26T23:08:36.535Z,18.40
2018-11-26T23:11:08.645Z,18.40
2018-11-26T23:13:40.177Z,18.40
2018-11-26T23:16:11.653Z,18.40
2018-11-26T23:18:43.135Z,18.60
2018-11-26T23:21:14.575Z,18.60
2018-11-26T23:23:46.131Z,18.70
2018-11-26T23:26:17.859Z,18.70
2018-11-26T23:28:49.257Z,18.70
2018-11-26T23:31:21.000Z,18.90
2018-11-26T23:33:52.371Z,19.00
2018-11-26T23:36:24.797Z,19.30
2018-11-26T23:38:56.443Z,19.60
2018-11-26T23:41:28.085Z,19.90
2018-11-26T23:43:59.815Z,20.00
2018-11-26T23:46:30.415Z,20.30
2018-11-26T23:49:01.911Z,20.40
2018-11-26T23:51:33.519Z,20.40
2018-11-26T23:54:05.202Z,20.10
2018-11-26T23:56:36.864Z,19.90
2018-11-26T23:59:08.673Z,19.70
